Knightsen, CA (94548)

2:58 AM PDT on May 23, 2015 (GMT -0700)
N6ML - North Brentwood | | Change Station
CLOSE
Current Station
Personal Weather Station
Location: Brentwood, CA
Elevation: 66 ft
Nearby Weather Stations

Elev 66 ft 37.96 °N, 121.70 °W | Updated 27 seconds ago

Mostly Cloudy
Mostly Cloudy
56.1 °F
Feels Like 56.1 °F
N
4.0
Wind Variable Wind from SW
Gusts 13.0 mph

Today
High -- | Low -- °F
--% Chance of Precip.
Yesterday
High -- | Low -- °F
Precip. -- in
5:50 AM 8:16 PM
Waxing Crescent, 28% visible
Pressure 30.06 in
Visibility 10.0 miles
Clouds Overcast 1300 ft
Dew Point 51 °F
Humidity 82%
Rainfall 0.00 in
Snow Depth Not available.
UV 0 out of 12
Pollen 6.80 out of 12
Air Quality Not available.
Flu Activity Sporadic
METAR KLVK 230953Z AUTO 24010KT 10SM OVC013 14/10 A3006 RMK AO2 SLP178 T01390100 $

More Conditions Fewer Conditions

Pressure 30.06 in
Visibility 10.0 miles
Clouds Overcast 1300 ft
Dew Point 51 °F
Humidity 82%
Rainfall 0.00 in
Snow Depth Not available.
UV 0 out of 12
Pollen 6.80 out of 12
Air Quality Not available.
Flu Activity Sporadic
METAR KLVK 230953Z AUTO 24010KT 10SM OVC013 14/10 A3006 RMK AO2 SLP178 T01390100 $

More Conditions Fewer Conditions

10-Day Weather Forecast

Almanac

Astronomy

May. 23, 2015 Rise Set
Actual Time
Civil Twilight
Nautical Twilight
Astronomical Twilight
Moon
Length of Visible Light
Length of Day
Tomorrow will be .
, % of the Moon is Illuminated

Today's Extremes

State Highs State Lows

Community

WunderPhotos

Upload Photos

1,823,405 photos uploaded!

WunderBlogs® & News

Nearby

Air Quality

  Air Quality AQ Index Pollutant
Not available.

Snow Depth

Station Depth Elevation

Earthquake Activity

City Distance Mag. Time & Date
Minimum magnitude displayed is 2.5.

Coastal Water Temperatures

Place Temperature

Stations

Nearby Weather Stations

Station Location Temp. Windchill Dew Point Humidity Wind Precip. Elev Updated Type